EDMO METAR and TAF | Updated Today

EDMO METAR

Oberpfaffenhofen Airport

Observation time: 27 min. ago

EDMO 291120Z AUTO 20003KT 160V250 6000 // FEW014/// OVC035/// 08/06 Q1011

Need help? Read our tutorial on how to read METARs or read the parsed version below.

Oberpfaffenhofen Airport (EDMO) METAR

  • Weather conditions on Sun, 29 May 2022 11:20:00 +0000 (27 min. ago):
  • Present conditions: Dry
  • Clouds: A few at 427 meters; overcast sky at 1067 meters
  • Visibility: 6000 meters
  • Wind: 200 degrees at 3 knots
  • Temperature: 8 celsius
  • Dew point: 6 celsius
  • Pressure: 1011 millibars
  • Remarks: None


Useful to know...

EDMO TAF

Oberpfaffenhofen Airport

TAF EDMO 271700Z 2718/2803 30008KT 9999 SCT040 PROB30 TEMPO 2722/2803 4000 -RADZ BKN012
Observation time: 42:47 hr. ago
Need help? Read our tutorial on how to read TAFs or read the parsed version below.

Parsed version of TAF for Oberpfaffenhofen Airport (EDMO)

  • From 27 May at 18:00 UTC, to day 28 of the month at 03:00 UTC
  • Clouds: Scattered at 1219 meters
  • Visibility: Greater than 10 km
  • Wind: 300 degrees at 8
  • Expected to arise temporarily, from 27 May at 22:00 UTC, to day 28 of the month at 03:00 UTC
    Probability of 30%
  • Clouds: Broken sky at 366 meters
  • Visibility: 4000 meters
  • Other: Light rain drizzle